Time;durP1;ratioP1;P1;durP2;ratioP2;P2;SDS_P1;SDS_P2;PMS_P1;PMS_P2;Temp;Humidity;BMP_temperature;BMP_pressure;BME280_temperature;BME280_humidity;BME280_pressure;Samples;Min_cycle;Max_cycle;Signal;HPM_P1;HPM_P2
2022/11/11 00:01:00;;;;;;;105.03;82.40;;;;;;;;;;5076970;28;20040;-70
2022/11/11 00:03:26;;;;;;;94.55;76.10;;;;;;;;;;5051530;28;20024;-73
2022/11/11 00:05:51;;;;;;;90.88;73.88;;;;;;;;;;5073933;28;20504;-75
2022/11/11 00:08:16;;;;;;;89.38;70.18;;;;;;;;;;5080724;28;20032;-70
2022/11/11 00:10:42;;;;;;;90.38;69.25;;;;;;;;;;5077653;28;20028;-73
2022/11/11 00:13:08;;;;;;;79.88;65.88;;;;;;;;;;5077245;28;20080;-73
2022/11/11 00:15:36;;;;;;;75.35;60.42;;;;;;;;;;5081190;28;20050;-70
2022/11/11 00:26:14;;;;;;;64.80;54.40;;;;;;;;;;5070947;28;20359;-77
2022/11/11 00:28:39;;;;;;;66.32;55.08;;;;;;;;;;5082001;28;20020;-71
2022/11/11 00:31:06;;;;;;;62.97;51.53;;;;;;;;;;5075076;28;20036;-73
2022/11/11 00:33:31;;;;;;;60.30;50.65;;;;;;;;;;5075080;28;20461;-71
2022/11/11 00:35:57;;;;;;;61.22;49.35;;;;;;;;;;5074431;28;20145;-71
2022/11/11 00:41:06;;;;;;;63.45;53.22;;;;;;;;;;5079697;28;20097;-76
2022/11/11 00:43:32;;;;;;;69.03;55.53;;;;;;;;;;5080689;28;20033;-73
2022/11/11 00:50:57;;;;;;;66.28;54.63;;;;;;;;;;5080939;28;20023;-75
2022/11/11 00:51:27;;;;;;;69.72;57.55;;;;;;;;;;5079167;28;20499;-72
2022/11/11 00:53:52;;;;;;;68.57;55.15;;;;;;;;;;5070985;28;20040;-71
2022/11/11 00:56:18;;;;;;;77.15;61.30;;;;;;;;;;5075301;28;20363;-72
2022/11/11 00:58:43;;;;;;;69.80;57.33;;;;;;;;;;5074958;28;20055;-75
2022/11/11 01:01:08;;;;;;;63.78;54.58;;;;;;;;;;5077546;28;20039;-71
2022/11/11 01:03:34;;;;;;;65.65;51.70;;;;;;;;;;5080770;28;20436;-71
2022/11/11 01:06:00;;;;;;;66.75;51.85;;;;;;;;;;5077377;28;20124;-76
2022/11/11 01:08:25;;;;;;;62.17;51.10;;;;;;;;;;5069177;28;20028;-71
2022/11/11 01:10:51;;;;;;;62.17;50.20;;;;;;;;;;5073542;28;20043;-72
2022/11/11 01:13:18;;;;;;;59.75;52.47;;;;;;;;;;5080751;28;20099;-71
2022/11/11 01:15:45;;;;;;;74.85;59.88;;;;;;;;;;5049943;28;20431;-73
2022/11/11 01:18:11;;;;;;;87.07;67.40;;;;;;;;;;5079447;28;20190;-70
2022/11/11 01:20:37;;;;;;;90.82;71.13;;;;;;;;;;5083525;28;20165;-70
2022/11/11 01:23:06;;;;;;;95.97;72.38;;;;;;;;;;5083852;28;20073;-73
2022/11/11 01:25:32;;;;;;;98.65;72.47;;;;;;;;;;5083899;28;20065;-72
2022/11/11 01:27:58;;;;;;;87.88;68.03;;;;;;;;;;5073985;28;20024;-70
2022/11/11 01:30:23;;;;;;;79.93;63.50;;;;;;;;;;5083862;28;20028;-75
2022/11/11 01:32:48;;;;;;;90.00;71.55;;;;;;;;;;5083368;28;20028;-72
2022/11/11 01:35:14;;;;;;;88.88;73.50;;;;;;;;;;5084478;28;20028;-71
2022/11/11 01:37:39;;;;;;;84.78;68.97;;;;;;;;;;5079925;28;20024;-76
2022/11/11 01:40:05;;;;;;;86.50;70.78;;;;;;;;;;5075446;28;20020;-72
2022/11/11 01:42:30;;;;;;;90.82;73.05;;;;;;;;;;5074548;28;20028;-71
2022/11/11 01:44:55;;;;;;;91.97;73.43;;;;;;;;;;5080286;28;20043;-72
2022/11/11 01:47:21;;;;;;;91.85;72.13;;;;;;;;;;5085211;28;20035;-71
2022/11/11 01:49:53;;;;;;;76.57;62.95;;;;;;;;;;5084010;28;20043;-71
2022/11/11 01:52:19;;;;;;;77.90;64.07;;;;;;;;;;5084526;28;20053;-70
2022/11/11 01:54:51;;;;;;;70.45;59.83;;;;;;;;;;5080589;28;20150;-70
2022/11/11 01:57:35;;;;;;;73.43;60.13;;;;;;;;;;5075499;28;20477;-73
2022/11/11 02:00:04;;;;;;;68.15;56.00;;;;;;;;;;5070532;28;20032;-71
2022/11/11 02:02:38;;;;;;;64.85;52.35;;;;;;;;;;5082981;28;20040;-71
2022/11/11 02:07:49;;;;;;;60.15;50.38;;;;;;;;;;5082064;28;20064;-75
2022/11/11 02:10:18;;;;;;;59.85;50.50;;;;;;;;;;5083492;28;20051;-74
2022/11/11 02:15:27;;;;;;;70.20;56.00;;;;;;;;;;5071490;28;20423;-75
2022/11/11 02:17:52;;;;;;;65.00;54.90;;;;;;;;;;5082398;28;20132;-71
2022/11/11 02:20:20;;;;;;;67.65;55.92;;;;;;;;;;5072285;28;20459;-71
2022/11/11 02:22:53;;;;;;;64.93;52.50;;;;;;;;;;5082940;28;20047;-74
2022/11/11 02:25:20;;;;;;;62.90;53.30;;;;;;;;;;5064601;28;20036;-72
2022/11/11 02:27:48;;;;;;;64.22;52.28;;;;;;;;;;5072484;28;20024;-71
2022/11/11 02:30:16;;;;;;;61.17;50.13;;;;;;;;;;5076770;28;20051;-71
2022/11/11 02:32:43;;;;;;;63.72;51.90;;;;;;;;;;5082649;28;20355;-70
2022/11/11 02:35:11;;;;;;;63.88;50.33;;;;;;;;;;5081093;28;20336;-75
2022/11/11 02:37:36;;;;;;;62.70;51.25;;;;;;;;;;5077302;28;20073;-76
2022/11/11 02:40:03;;;;;;;61.08;51.30;;;;;;;;;;5073282;28;20035;-71
2022/11/11 02:42:28;;;;;;;57.53;45.92;;;;;;;;;;5081450;28;20081;-74
2022/11/11 02:44:57;;;;;;;56.92;49.03;;;;;;;;;;5077518;28;20031;-71
2022/11/11 02:47:23;;;;;;;61.47;50.70;;;;;;;;;;5074113;28;20024;-71
2022/11/11 02:49:48;;;;;;;61.08;53.30;;;;;;;;;;5083281;28;20160;-70
2022/11/11 02:52:13;;;;;;;64.18;50.47;;;;;;;;;;5072159;28;20034;-69
2022/11/11 02:54:39;;;;;;;59.95;50.40;;;;;;;;;;5075851;28;20059;-70
2022/11/11 02:57:07;;;;;;;65.55;51.22;;;;;;;;;;5075735;28;20032;-72
2022/11/11 02:59:36;;;;;;;55.47;45.38;;;;;;;;;;5080628;28;20042;-71
2022/11/11 03:02:01;;;;;;;54.83;45.50;;;;;;;;;;5080904;28;20034;-71
2022/11/11 03:04:27;;;;;;;58.38;49.15;;;;;;;;;;5081596;28;20024;-71
2022/11/11 03:06:52;;;;;;;56.83;47.30;;;;;;;;;;5079651;28;20042;-72
2022/11/11 03:09:17;;;;;;;45.33;37.30;;;;;;;;;;5081204;28;20016;-69
2022/11/11 03:11:43;;;;;;;37.70;32.10;;;;;;;;;;5082210;28;20336;-70
2022/11/11 03:14:08;;;;;;;29.98;26.65;;;;;;;;;;5076735;28;20029;-70
2022/11/11 03:19:18;;;;;;;29.25;24.25;;;;;;;;;;5081323;28;20100;-70
2022/11/11 03:21:43;;;;;;;25.48;21.65;;;;;;;;;;5083242;28;20036;-75
2022/11/11 03:24:09;;;;;;;22.35;19.27;;;;;;;;;;5078028;28;20035;-71
2022/11/11 03:26:34;;;;;;;21.90;18.25;;;;;;;;;;5082001;28;20346;-69
2022/11/11 03:28:59;;;;;;;25.58;19.42;;;;;;;;;;5081337;28;20028;-68
2022/11/11 03:31:25;;;;;;;22.88;20.20;;;;;;;;;;5081163;28;20024;-70
2022/11/11 03:33:50;;;;;;;23.15;19.85;;;;;;;;;;5075877;28;20020;-69
2022/11/11 03:36:15;;;;;;;25.05;22.23;;;;;;;;;;5071680;28;20104;-71
2022/11/11 03:38:41;;;;;;;29.25;24.65;;;;;;;;;;5079096;28;20019;-69
2022/11/11 03:41:06;;;;;;;44.63;36.70;;;;;;;;;;5081266;28;20032;-74
2022/11/11 03:43:33;;;;;;;53.60;40.17;;;;;;;;;;5080803;28;20020;-71
2022/11/11 03:45:59;;;;;;;49.20;39.80;;;;;;;;;;5081016;28;20031;-74
2022/11/11 03:48:25;;;;;;;44.83;34.25;;;;;;;;;;5079842;28;20032;-70
2022/11/11 03:50:51;;;;;;;43.25;35.53;;;;;;;;;;5079606;28;20028;-71
2022/11/11 03:53:18;;;;;;;42.97;35.08;;;;;;;;;;5081966;28;20036;-74
2022/11/11 03:55:44;;;;;;;49.33;38.38;;;;;;;;;;5079352;28;20032;-70
2022/11/11 03:58:09;;;;;;;49.78;38.75;;;;;;;;;;5079928;28;20034;-72
2022/11/11 04:00:34;;;;;;;48.38;38.25;;;;;;;;;;5082132;28;20114;-70
2022/11/11 04:11:35;;;;;;;47.65;36.80;;;;;;;;;;5073531;28;20058;-70
2022/11/11 04:16:46;;;;;;;76.65;64.20;;;;;;;;;;5082241;28;20038;-70
2022/11/11 04:21:56;;;;;;;47.47;38.30;;;;;;;;;;5082034;28;20362;-75
2022/11/11 04:27:07;;;;;;;38.45;30.63;;;;;;;;;;5081210;28;20106;-73
2022/11/11 04:29:32;;;;;;;36.80;30.20;;;;;;;;;;5079841;28;20024;-75
2022/11/11 04:34:59;;;;;;;38.95;30.48;;;;;;;;;;5078182;28;20050;-73
2022/11/11 04:37:25;;;;;;;44.30;35.55;;;;;;;;;;5081462;28;20032;-71
2022/11/11 04:42:35;;;;;;;41.38;34.83;;;;;;;;;;5077070;28;20047;-75
2022/11/11 04:47:58;;;;;;;37.75;30.80;;;;;;;;;;5080260;28;20474;-70
2022/11/11 04:50:24;;;;;;;45.53;36.83;;;;;;;;;;5081200;28;20137;-76
2022/11/11 04:52:49;;;;;;;39.78;31.98;;;;;;;;;;5080022;28;20028;-73
2022/11/11 04:57:59;;;;;;;40.30;31.80;;;;;;;;;;5083846;28;20043;-73
2022/11/11 05:00:24;;;;;;;37.08;31.15;;;;;;;;;;5083024;28;20024;-70
2022/11/11 05:11:05;;;;;;;55.45;44.95;;;;;;;;;;5084200;28;20549;-72
2022/11/11 05:21:48;;;;;;;76.35;67.20;;;;;;;;;;5084694;28;20109;-72
2022/11/11 05:26:57;;;;;;;51.83;42.67;;;;;;;;;;5084666;28;20106;-71
2022/11/11 05:29:23;;;;;;;48.85;40.70;;;;;;;;;;5080762;28;20028;-70
2022/11/11 05:31:48;;;;;;;44.13;32.90;;;;;;;;;;5084081;28;20035;-71
2022/11/11 05:34:13;;;;;;;93.00;58.65;;;;;;;;;;5083876;28;20055;-72
2022/11/11 05:36:39;;;;;;;68.82;43.85;;;;;;;;;;5075181;28;20055;-71
2022/11/11 05:39:04;;;;;;;43.83;35.90;;;;;;;;;;5062981;28;20020;-75
2022/11/11 05:41:29;;;;;;;37.92;31.75;;;;;;;;;;5084231;28;20020;-73
2022/11/11 05:43:54;;;;;;;39.38;30.75;;;;;;;;;;5083328;28;20470;-71
2022/11/11 05:46:20;;;;;;;40.50;31.02;;;;;;;;;;5084181;28;20353;-76
2022/11/11 05:51:29;;;;;;;34.58;27.15;;;;;;;;;;5068231;28;20035;-76
2022/11/11 05:53:56;;;;;;;52.28;46.58;;;;;;;;;;5068744;28;20036;-72
2022/11/11 05:56:21;;;;;;;47.53;32.15;;;;;;;;;;5067247;28;20050;-73
2022/11/11 05:58:47;;;;;;;36.72;30.30;;;;;;;;;;5070094;28;20109;-71
2022/11/11 06:01:12;;;;;;;50.55;40.92;;;;;;;;;;5081798;28;20051;-73
2022/11/11 06:03:37;;;;;;;46.78;39.45;;;;;;;;;;5083980;28;20031;-74
2022/11/11 06:06:03;;;;;;;44.45;35.25;;;;;;;;;;5083229;28;20028;-71
2022/11/11 06:08:28;;;;;;;93.75;59.70;;;;;;;;;;5083556;28;20030;-75
2022/11/11 06:10:53;;;;;;;59.75;44.33;;;;;;;;;;5082179;28;20032;-70
2022/11/11 06:13:19;;;;;;;65.05;48.55;;;;;;;;;;5083509;28;20098;-71
2022/11/11 06:15:44;;;;;;;62.25;47.50;;;;;;;;;;5075329;28;20020;-70
2022/11/11 06:18:09;;;;;;;43.85;34.67;;;;;;;;;;5073425;28;20047;-70
2022/11/11 06:20:35;;;;;;;36.22;29.33;;;;;;;;;;5070535;28;20028;-70
2022/11/11 06:23:01;;;;;;;42.30;35.33;;;;;;;;;;5067725;28;20020;-74
2022/11/11 06:28:15;;;;;;;116.85;91.38;;;;;;;;;;5067176;28;20402;-72
2022/11/11 06:30:40;;;;;;;80.35;67.18;;;;;;;;;;5067940;28;20130;-71
2022/11/11 06:33:06;;;;;;;67.97;58.47;;;;;;;;;;5070277;28;20138;-71
2022/11/11 06:35:38;;;;;;;29.08;24.63;;;;;;;;;;5081953;28;20046;-71
2022/11/11 06:38:05;;;;;;;36.20;26.13;;;;;;;;;;5083062;28;20115;-72
2022/11/11 06:40:31;;;;;;;26.60;20.67;;;;;;;;;;5082404;28;20032;-76
2022/11/11 06:42:57;;;;;;;27.40;20.73;;;;;;;;;;5070269;28;20028;-72
2022/11/11 06:45:23;;;;;;;31.80;25.05;;;;;;;;;;5080154;28;20035;-74
2022/11/11 06:47:48;;;;;;;31.50;27.05;;;;;;;;;;5073793;28;20093;-72
2022/11/11 06:50:14;;;;;;;30.30;26.50;;;;;;;;;;5080227;28;20032;-74
2022/11/11 06:52:39;;;;;;;37.85;30.02;;;;;;;;;;5061483;28;20090;-71
2022/11/11 06:55:05;;;;;;;41.40;33.28;;;;;;;;;;5068060;28;20032;-74
2022/11/11 06:57:30;;;;;;;28.05;22.38;;;;;;;;;;5068233;28;20119;-73
2022/11/11 06:59:55;;;;;;;24.60;19.98;;;;;;;;;;5068968;28;20354;-72
2022/11/11 07:02:21;;;;;;;24.77;20.83;;;;;;;;;;5069154;28;20112;-75
2022/11/11 07:04:46;;;;;;;26.90;21.40;;;;;;;;;;5081440;28;20063;-74
2022/11/11 07:07:11;;;;;;;28.40;22.80;;;;;;;;;;5072482;28;20957;-72
2022/11/11 07:09:37;;;;;;;23.58;19.55;;;;;;;;;;5067827;28;20114;-71
2022/11/11 07:12:02;;;;;;;26.50;22.45;;;;;;;;;;5069397;28;20030;-72
2022/11/11 07:14:28;;;;;;;30.27;25.60;;;;;;;;;;5068986;28;20028;-71
2022/11/11 07:16:53;;;;;;;21.90;17.40;;;;;;;;;;5068797;28;20032;-71
2022/11/11 07:19:18;;;;;;;19.63;16.83;;;;;;;;;;5047802;28;20429;-70
2022/11/11 07:21:43;;;;;;;19.17;17.02;;;;;;;;;;5072036;28;20032;-72
2022/11/11 07:24:09;;;;;;;19.98;16.92;;;;;;;;;;5075771;28;20020;-73
2022/11/11 07:26:35;;;;;;;17.05;13.52;;;;;;;;;;5067777;28;20028;-69
2022/11/11 07:29:00;;;;;;;17.17;14.90;;;;;;;;;;5066858;28;20024;-72
2022/11/11 07:31:25;;;;;;;16.95;14.05;;;;;;;;;;5071968;28;20085;-70
2022/11/11 07:33:51;;;;;;;14.68;12.63;;;;;;;;;;5081742;28;20085;-70
2022/11/11 07:36:16;;;;;;;15.70;12.75;;;;;;;;;;5071241;28;20032;-69
2022/11/11 07:38:41;;;;;;;18.55;14.95;;;;;;;;;;5074054;28;20459;-68
2022/11/11 07:41:07;;;;;;;19.35;16.20;;;;;;;;;;5070340;28;20761;-69
2022/11/11 07:43:32;;;;;;;39.88;27.13;;;;;;;;;;5078777;28;20032;-72
2022/11/11 07:45:57;;;;;;;40.80;29.80;;;;;;;;;;5067994;28;20024;-70
2022/11/11 07:48:23;;;;;;;24.38;18.80;;;;;;;;;;5056761;28;20081;-70
2022/11/11 07:50:50;;;;;;;37.55;29.58;;;;;;;;;;5075046;28;20245;-72
2022/11/11 07:53:15;;;;;;;39.38;32.25;;;;;;;;;;5062749;28;20032;-70
2022/11/11 07:55:41;;;;;;;36.28;26.27;;;;;;;;;;5066049;28;20126;-68
2022/11/11 07:58:06;;;;;;;35.08;27.63;;;;;;;;;;5067968;28;20042;-69
2022/11/11 08:00:31;;;;;;;45.92;32.83;;;;;;;;;;5066740;28;20024;-69
2022/11/11 08:02:57;;;;;;;35.85;26.88;;;;;;;;;;5067076;28;20024;-73
2022/11/11 08:05:22;;;;;;;26.77;20.25;;;;;;;;;;5068122;28;20443;-70
2022/11/11 08:07:47;;;;;;;24.75;19.27;;;;;;;;;;5068902;28;20443;-71
2022/11/11 08:10:13;;;;;;;23.95;18.63;;;;;;;;;;5067680;28;20036;-74
2022/11/11 08:15:23;;;;;;;20.58;16.15;;;;;;;;;;5064161;28;20421;-73
2022/11/11 08:17:48;;;;;;;17.95;14.70;;;;;;;;;;5068236;28;20047;-71
2022/11/11 08:20:14;;;;;;;27.05;19.35;;;;;;;;;;5068652;28;20035;-70
2022/11/11 08:22:40;;;;;;;22.05;17.55;;;;;;;;;;5067549;28;20070;-72
2022/11/11 08:25:09;;;;;;;23.25;17.23;;;;;;;;;;5066731;28;20179;-74
2022/11/11 08:27:35;;;;;;;17.05;13.60;;;;;;;;;;5066148;28;20096;-70
2022/11/11 08:30:00;;;;;;;18.10;15.23;;;;;;;;;;5067123;28;20040;-72
2022/11/11 08:32:26;;;;;;;33.85;24.30;;;;;;;;;;5066298;28;20047;-70
2022/11/11 08:34:51;;;;;;;31.58;23.30;;;;;;;;;;5068018;28;20028;-71
2022/11/11 08:37:16;;;;;;;25.88;20.00;;;;;;;;;;5067732;28;20057;-70
2022/11/11 08:39:42;;;;;;;17.90;14.25;;;;;;;;;;5067231;28;20028;-71
2022/11/11 08:42:07;;;;;;;23.88;18.67;;;;;;;;;;5066227;28;20085;-71
2022/11/11 08:44:32;;;;;;;20.92;17.85;;;;;;;;;;5065950;28;20335;-70
2022/11/11 08:46:58;;;;;;;24.20;19.23;;;;;;;;;;5065401;28;20355;-69
2022/11/11 08:49:23;;;;;;;26.67;21.38;;;;;;;;;;5046966;28;20432;-71
2022/11/11 08:51:49;;;;;;;24.92;20.75;;;;;;;;;;5065785;28;20039;-70
2022/11/11 08:54:14;;;;;;;24.48;18.35;;;;;;;;;;5064021;28;20024;-71
2022/11/11 08:56:40;;;;;;;21.15;16.65;;;;;;;;;;5066501;28;20444;-71
2022/11/11 08:59:05;;;;;;;32.70;25.02;;;;;;;;;;5063234;28;20031;-70
2022/11/11 09:01:31;;;;;;;30.85;22.95;;;;;;;;;;5052108;28;20024;-70
2022/11/11 09:03:56;;;;;;;26.42;21.58;;;;;;;;;;5070881;28;20541;-76
2022/11/11 09:06:22;;;;;;;23.50;19.52;;;;;;;;;;5065496;28;20024;-70
2022/11/11 09:08:47;;;;;;;27.42;22.40;;;;;;;;;;5067308;28;20036;-71
2022/11/11 09:11:13;;;;;;;27.08;20.60;;;;;;;;;;5068148;28;20027;-71
2022/11/11 09:13:39;;;;;;;22.45;18.95;;;;;;;;;;5065208;28;20355;-75
2022/11/11 09:16:05;;;;;;;24.58;19.75;;;;;;;;;;5067059;28;20036;-74
2022/11/11 09:18:34;;;;;;;31.85;26.02;;;;;;;;;;5067125;28;20044;-75
2022/11/11 09:20:59;;;;;;;33.33;26.52;;;;;;;;;;5066749;28;20020;-73
2022/11/11 09:23:25;;;;;;;53.40;38.15;;;;;;;;;;5076609;28;20504;-72
2022/11/11 09:25:50;;;;;;;30.25;25.55;;;;;;;;;;5070828;28;20093;-75
2022/11/11 09:28:15;;;;;;;29.08;24.10;;;;;;;;;;5067790;28;20103;-73
2022/11/11 09:30:41;;;;;;;31.92;27.33;;;;;;;;;;5077011;28;20119;-73
2022/11/11 09:33:06;;;;;;;27.75;24.67;;;;;;;;;;5069850;28;20103;-73
2022/11/11 09:35:32;;;;;;;25.98;23.27;;;;;;;;;;5079905;28;20063;-72
2022/11/11 09:37:59;;;;;;;21.73;18.73;;;;;;;;;;5079105;28;20093;-71
2022/11/11 09:40:25;;;;;;;25.38;21.10;;;;;;;;;;5080837;28;20042;-72
2022/11/11 09:42:59;;;;;;;28.60;23.27;;;;;;;;;;5079824;28;20825;-72
2022/11/11 09:45:27;;;;;;;27.38;21.90;;;;;;;;;;5083397;28;20032;-74
2022/11/11 09:48:04;;;;;;;27.15;22.65;;;;;;;;;;5083002;28;20039;-73
2022/11/11 09:50:31;;;;;;;32.03;27.60;;;;;;;;;;5075984;28;20485;-70
2022/11/11 09:52:59;;;;;;;31.63;26.88;;;;;;;;;;5070919;28;20026;-71
2022/11/11 09:55:45;;;;;;;27.50;22.47;;;;;;;;;;5068603;28;20028;-72
2022/11/11 09:58:18;;;;;;;31.35;25.33;;;;;;;;;;5080350;28;20451;-72
2022/11/11 10:00:44;;;;;;;34.75;26.52;;;;;;;;;;5084171;28;20031;-76
2022/11/11 10:03:18;;;;;;;36.95;30.17;;;;;;;;;;5082346;28;20024;-72
2022/11/11 10:05:55;;;;;;;28.45;23.33;;;;;;;;;;5083934;28;20374;-72
2022/11/11 10:08:23;;;;;;;37.47;28.17;;;;;;;;;;5083135;28;20012;-74
2022/11/11 10:10:50;;;;;;;41.00;32.88;;;;;;;;;;5081290;28;20487;-73
2022/11/11 10:13:18;;;;;;;38.63;30.17;;;;;;;;;;5071137;28;20027;-76
2022/11/11 10:16:02;;;;;;;45.33;33.65;;;;;;;;;;5068492;28;20035;-72
2022/11/11 10:18:40;;;;;;;36.20;27.88;;;;;;;;;;5068694;28;20052;-73
2022/11/11 10:21:12;;;;;;;27.50;24.50;;;;;;;;;;5068700;28;20047;-70
2022/11/11 10:23:37;;;;;;;47.72;38.45;;;;;;;;;;5072202;28;20020;-72
2022/11/11 10:26:29;;;;;;;31.98;27.17;;;;;;;;;;5069346;28;20035;-71
2022/11/11 10:28:54;;;;;;;30.17;25.98;;;;;;;;;;5003357;28;20047;-72
2022/11/11 10:31:22;;;;;;;49.17;35.60;;;;;;;;;;5004923;28;20049;-71
2022/11/11 10:33:53;;;;;;;29.98;24.40;;;;;;;;;;5006149;28;20050;-73
2022/11/11 10:36:20;;;;;;;36.22;29.60;;;;;;;;;;5005313;28;20074;-71
2022/11/11 10:38:58;;;;;;;34.28;29.13;;;;;;;;;;5006885;28;20038;-71
2022/11/11 10:41:24;;;;;;;37.78;31.35;;;;;;;;;;5003877;28;20108;-72
2022/11/11 10:43:49;;;;;;;38.05;30.73;;;;;;;;;;5003596;28;21256;-72
2022/11/11 10:46:22;;;;;;;29.52;25.48;;;;;;;;;;5003721;28;20045;-74
2022/11/11 10:48:54;;;;;;;39.33;32.95;;;;;;;;;;5018047;28;20045;-77
2022/11/11 10:51:20;;;;;;;36.22;28.27;;;;;;;;;;5016207;28;20048;-74
2022/11/11 10:53:45;;;;;;;37.22;30.27;;;;;;;;;;5004091;28;22837;-72
2022/11/11 10:56:17;;;;;;;29.88;25.30;;;;;;;;;;5005933;28;20041;-71
2022/11/11 10:58:56;;;;;;;32.75;29.17;;;;;;;;;;5004991;28;20049;-75
2022/11/11 11:01:27;;;;;;;30.25;26.45;;;;;;;;;;5003230;28;20029;-72
2022/11/11 11:03:57;;;;;;;35.88;30.00;;;;;;;;;;5007094;28;20044;-75
2022/11/11 11:06:27;;;;;;;36.88;30.02;;;;;;;;;;5056425;28;20063;-71
2022/11/11 11:09:01;;;;;;;34.00;28.08;;;;;;;;;;5083056;28;20099;-76
2022/11/11 11:11:32;;;;;;;33.22;29.17;;;;;;;;;;5080937;28;20052;-73
2022/11/11 11:14:15;;;;;;;34.38;29.45;;;;;;;;;;5069323;28;20039;-70
2022/11/11 11:16:46;;;;;;;31.08;25.25;;;;;;;;;;5065049;28;20035;-71
2022/11/11 11:19:21;;;;;;;29.70;24.95;;;;;;;;;;5071670;28;20526;-70
2022/11/11 11:21:57;;;;;;;27.95;23.30;;;;;;;;;;5081631;28;20161;-72
2022/11/11 11:24:25;;;;;;;33.75;28.15;;;;;;;;;;5080385;28;20118;-74
2022/11/11 11:26:52;;;;;;;27.27;23.70;;;;;;;;;;5068873;28;20036;-72
2022/11/11 11:29:23;;;;;;;35.08;27.08;;;;;;;;;;5079156;28;20016;-75
2022/11/11 11:31:49;;;;;;;31.20;25.70;;;;;;;;;;5067264;28;20061;-74
2022/11/11 11:34:14;;;;;;;24.20;20.88;;;;;;;;;;5070238;28;20039;-74
2022/11/11 11:36:39;;;;;;;30.45;23.63;;;;;;;;;;5080363;28;20139;-75
2022/11/11 11:39:05;;;;;;;46.83;34.40;;;;;;;;;;5082354;28;20058;-73
2022/11/11 11:41:38;;;;;;;46.05;36.90;;;;;;;;;;5079120;28;20036;-72
2022/11/11 11:44:23;;;;;;;24.83;21.70;;;;;;;;;;5068905;28;20028;-72
2022/11/11 11:46:49;;;;;;;33.47;26.10;;;;;;;;;;5072841;28;20431;-73
2022/11/11 11:49:17;;;;;;;37.92;29.38;;;;;;;;;;5066117;28;20111;-75
2022/11/11 11:51:59;;;;;;;33.10;28.40;;;;;;;;;;5072220;28;20102;-71
2022/11/11 11:54:24;;;;;;;38.83;31.00;;;;;;;;;;5078107;28;20028;-71
2022/11/11 11:56:52;;;;;;;31.45;26.77;;;;;;;;;;5070031;28;20024;-74
2022/11/11 11:59:21;;;;;;;34.95;29.08;;;;;;;;;;5079487;28;20451;-72
2022/11/11 12:01:53;;;;;;;31.00;26.98;;;;;;;;;;5080764;28;20059;-73
2022/11/11 12:04:28;;;;;;;29.80;26.65;;;;;;;;;;5064303;28;20032;-74
2022/11/11 12:07:12;;;;;;;30.33;26.88;;;;;;;;;;5072369;28;20453;-72
2022/11/11 12:09:49;;;;;;;29.02;24.60;;;;;;;;;;5061899;28;20035;-72
2022/11/11 12:12:29;;;;;;;36.80;32.75;;;;;;;;;;5061925;28;20036;-73
2022/11/11 12:15:21;;;;;;;52.75;42.50;;;;;;;;;;5061637;28;20178;-72
2022/11/11 12:17:54;;;;;;;57.90;43.92;;;;;;;;;;5021744;28;20049;-74
2022/11/11 12:20:23;;;;;;;31.40;28.00;;;;;;;;;;5021096;28;20429;-71
2022/11/11 12:22:54;;;;;;;41.50;32.92;;;;;;;;;;5015445;28;20449;-72
2022/11/11 12:25:26;;;;;;;35.13;30.00;;;;;;;;;;5003559;28;20060;-72
2022/11/11 12:28:11;;;;;;;36.10;31.73;;;;;;;;;;5005214;28;20099;-71
2022/11/11 12:30:38;;;;;;;28.33;24.67;;;;;;;;;;5007003;28;20112;-75
2022/11/11 12:33:31;;;;;;;33.03;29.15;;;;;;;;;;5010463;28;20123;-74
2022/11/11 12:36:06;;;;;;;40.80;32.88;;;;;;;;;;5019083;28;20469;-74
2022/11/11 12:38:34;;;;;;;38.70;32.42;;;;;;;;;;5017822;28;20592;-71
2022/11/11 12:41:18;;;;;;;40.60;34.55;;;;;;;;;;5005159;28;20041;-75
2022/11/11 12:43:49;;;;;;;39.15;34.65;;;;;;;;;;5004671;28;20041;-71
2022/11/11 12:46:15;;;;;;;35.17;30.90;;;;;;;;;;5004594;28;20518;-76
2022/11/11 12:49:04;;;;;;;34.03;29.63;;;;;;;;;;5003414;28;20048;-74
2022/11/11 12:51:38;;;;;;;33.53;29.83;;;;;;;;;;5004318;28;20040;-76
2022/11/11 12:54:03;;;;;;;32.08;27.02;;;;;;;;;;5029729;28;20040;-72
2022/11/11 12:56:28;;;;;;;44.70;36.28;;;;;;;;;;5077724;28;20032;-71
2022/11/11 12:59:23;;;;;;;37.22;31.27;;;;;;;;;;5074290;28;20016;-75
2022/11/11 13:01:51;;;;;;;42.58;35.53;;;;;;;;;;4977833;28;20128;-71
2022/11/11 13:04:49;;;;;;;43.47;34.55;;;;;;;;;;4976678;28;20113;-72
2022/11/11 13:07:17;;;;;;;37.03;31.30;;;;;;;;;;4960367;28;20044;-74
2022/11/11 13:10:00;;;;;;;44.63;34.90;;;;;;;;;;4980849;28;20034;-71
2022/11/11 13:12:35;;;;;;;37.80;33.25;;;;;;;;;;4994212;28;20393;-71
2022/11/11 13:15:09;;;;;;;42.45;34.17;;;;;;;;;;4995273;28;20026;-72
2022/11/11 13:17:35;;;;;;;39.67;33.92;;;;;;;;;;4995010;28;20046;-72
2022/11/11 13:20:02;;;;;;;42.72;35.95;;;;;;;;;;4979557;28;20041;-75
2022/11/11 13:22:28;;;;;;;42.33;37.38;;;;;;;;;;4987735;28;20034;-71
2022/11/11 13:24:55;;;;;;;39.58;33.03;;;;;;;;;;4982931;28;20484;-70
2022/11/11 13:27:20;;;;;;;44.83;37.80;;;;;;;;;;4994710;28;20029;-72
2022/11/11 13:29:54;;;;;;;49.58;42.33;;;;;;;;;;4997381;28;20022;-73
2022/11/11 13:32:24;;;;;;;40.42;34.05;;;;;;;;;;4996053;28;20073;-72
2022/11/11 13:34:50;;;;;;;46.30;38.72;;;;;;;;;;4996776;28;20048;-73
2022/11/11 13:37:27;;;;;;;36.53;29.75;;;;;;;;;;5003150;28;20029;-73
2022/11/11 13:39:56;;;;;;;53.13;42.40;;;;;;;;;;5055154;28;21203;-71
2022/11/11 13:42:24;;;;;;;36.72;30.83;;;;;;;;;;5063601;28;21075;-73
2022/11/11 13:44:50;;;;;;;57.47;45.78;;;;;;;;;;5062319;28;20432;-73
2022/11/11 13:47:18;;;;;;;50.00;42.03;;;;;;;;;;5062799;28;20435;-74
2022/11/11 13:49:50;;;;;;;58.70;46.35;;;;;;;;;;5054567;28;20025;-71
2022/11/11 13:52:21;;;;;;;57.80;45.70;;;;;;;;;;5050920;28;20078;-72
2022/11/11 13:54:57;;;;;;;55.92;43.35;;;;;;;;;;5050963;28;20439;-72
2022/11/11 13:57:25;;;;;;;43.00;37.65;;;;;;;;;;5066792;28;20029;-73
2022/11/11 14:00:14;;;;;;;66.90;55.78;;;;;;;;;;5050655;28;20028;-76
2022/11/11 14:02:39;;;;;;;34.83;30.20;;;;;;;;;;5042564;28;20036;-75
2022/11/11 14:05:05;;;;;;;37.00;32.40;;;;;;;;;;5049644;28;20351;-76
2022/11/11 14:07:48;;;;;;;35.60;31.75;;;;;;;;;;5048493;28;20040;-74
2022/11/11 14:10:16;;;;;;;41.60;35.85;;;;;;;;;;5050141;28;20036;-74
2022/11/11 14:12:52;;;;;;;43.75;36.05;;;;;;;;;;5048945;28;20028;-76
2022/11/11 14:15:34;;;;;;;40.45;36.00;;;;;;;;;;5049387;28;20040;-73
2022/11/11 14:18:00;;;;;;;39.45;34.55;;;;;;;;;;5058030;28;20385;-76
2022/11/11 14:20:39;;;;;;;45.38;40.50;;;;;;;;;;5069666;28;20024;-72
2022/11/11 14:23:24;;;;;;;50.58;45.08;;;;;;;;;;5069887;28;20030;-74
2022/11/11 14:25:51;;;;;;;41.85;36.35;;;;;;;;;;5058117;28;20131;-72
2022/11/11 14:28:28;;;;;;;38.45;34.10;;;;;;;;;;5069723;28;20016;-72
2022/11/11 14:31:12;;;;;;;40.30;34.25;;;;;;;;;;5069854;28;20031;-75
2022/11/11 14:33:40;;;;;;;42.40;35.40;;;;;;;;;;5047822;28;20382;-73
2022/11/11 14:36:16;;;;;;;39.42;34.63;;;;;;;;;;5069384;28;20028;-73
2022/11/11 14:38:49;;;;;;;55.33;44.88;;;;;;;;;;5050888;28;20513;-74
2022/11/11 14:41:34;;;;;;;54.03;45.10;;;;;;;;;;5069762;28;20027;-74
2022/11/11 14:44:18;;;;;;;59.78;49.03;;;;;;;;;;5069879;28;20069;-74
2022/11/11 14:47:15;;;;;;;51.72;43.47;;;;;;;;;;5069823;28;20028;-77
2022/11/11 14:49:44;;;;;;;38.42;34.30;;;;;;;;;;5049585;28;20031;-74
2022/11/11 14:52:28;;;;;;;51.30;42.40;;;;;;;;;;5068909;28;20355;-74
2022/11/11 14:54:56;;;;;;;62.80;51.22;;;;;;;;;;5067821;28;20071;-74
2022/11/11 14:57:25;;;;;;;46.15;40.17;;;;;;;;;;5068268;28;20028;-75
2022/11/11 14:59:52;;;;;;;44.75;39.83;;;;;;;;;;5069221;28;20023;-75
2022/11/11 15:02:26;;;;;;;40.20;35.85;;;;;;;;;;5069796;28;20056;-74
2022/11/11 15:04:51;;;;;;;53.55;44.25;;;;;;;;;;5067145;28;20020;-73
2022/11/11 15:07:27;;;;;;;68.55;55.03;;;;;;;;;;5077096;28;20047;-78
2022/11/11 15:09:55;;;;;;;59.10;48.88;;;;;;;;;;5066279;28;20095;-76
2022/11/11 15:12:37;;;;;;;56.75;47.83;;;;;;;;;;5063781;28;20032;-77
2022/11/11 15:15:02;;;;;;;76.13;60.03;;;;;;;;;;5064718;28;20111;-76
2022/11/11 15:17:38;;;;;;;63.95;52.83;;;;;;;;;;5065195;28;20641;-76
2022/11/11 15:20:18;;;;;;;81.90;63.25;;;;;;;;;;5064239;28;20110;-75
2022/11/11 15:23:01;;;;;;;74.70;61.83;;;;;;;;;;5063819;28;20032;-75
2022/11/11 15:25:32;;;;;;;84.25;69.47;;;;;;;;;;5064614;28;20024;-74
2022/11/11 15:27:57;;;;;;;90.15;74.00;;;;;;;;;;5063124;28;20024;-76
2022/11/11 15:30:24;;;;;;;79.68;65.30;;;;;;;;;;5065474;28;20074;-75
2022/11/11 15:33:01;;;;;;;74.43;56.80;;;;;;;;;;5064716;28;20121;-77
2022/11/11 15:35:35;;;;;;;84.88;65.28;;;;;;;;;;5064073;28;20092;-77
2022/11/11 15:38:01;;;;;;;87.10;69.70;;;;;;;;;;5063532;28;20410;-75
2022/11/11 15:40:31;;;;;;;113.07;88.40;;;;;;;;;;5070570;28;20059;-78
2022/11/11 15:42:57;;;;;;;116.28;87.15;;;;;;;;;;5065352;28;20020;-76